createdAt,value
2022-08-25T00:00:54.363Z,49.35
2022-08-25T00:06:16.942Z,49.43
2022-08-25T00:11:40.047Z,49.62
2022-08-25T00:17:02.096Z,49.88
2022-08-25T00:22:23.893Z,49.53
2022-08-25T00:27:45.812Z,49.71
2022-08-25T00:33:08.426Z,49.53
2022-08-25T00:38:30.327Z,49.68
2022-08-25T00:43:58.077Z,49.84
2022-08-25T00:49:29.069Z,49.90
2022-08-25T00:55:08.306Z,49.78
2022-08-25T01:00:37.320Z,49.96
2022-08-25T01:06:00.473Z,50.20
2022-08-25T01:11:22.388Z,49.86
2022-08-25T01:16:44.416Z,50.06
2022-08-25T01:22:06.385Z,50.15
2022-08-25T01:27:28.136Z,50.04
2022-08-25T01:32:49.843Z,49.96
2022-08-25T01:38:13.082Z,50.15
2022-08-25T01:43:38.935Z,50.36
2022-08-25T01:49:10.874Z,50.25
2022-08-25T01:54:32.759Z,50.16
2022-08-25T01:59:54.454Z,50.36
2022-08-25T02:05:18.482Z,50.30
2022-08-25T02:10:45.649Z,50.35
2022-08-25T02:16:09.482Z,50.32
2022-08-25T02:21:32.720Z,50.36
2022-08-25T02:26:54.529Z,50.16
2022-08-25T02:32:16.219Z,50.49
2022-08-25T02:37:37.966Z,50.42
2022-08-25T02:42:59.858Z,50.40
2022-08-25T02:48:21.925Z,50.51
2022-08-25T02:53:46.150Z,50.39
2022-08-25T02:59:07.868Z,50.38
2022-08-25T03:04:29.712Z,50.39
2022-08-25T03:09:51.704Z,50.44
2022-08-25T03:15:18.737Z,50.04
2022-08-25T03:20:40.847Z,50.32
2022-08-25T03:26:21.486Z,50.34
2022-08-25T03:31:45.027Z,50.37
2022-08-25T03:37:08.723Z,50.24
2022-08-25T03:42:30.454Z,50.47
2022-08-25T03:47:53.289Z,50.19
2022-08-25T03:53:15.108Z,50.18
2022-08-25T03:58:37.284Z,50.31
2022-08-25T04:03:59.002Z,50.27
2022-08-25T04:09:21.489Z,50.19
2022-08-25T04:14:43.248Z,49.92
2022-08-25T04:20:06.626Z,50.42
2022-08-25T04:25:28.726Z,50.14
2022-08-25T04:30:52.173Z,50.15
2022-08-25T04:36:15.119Z,49.95
2022-08-25T04:41:36.926Z,49.87
2022-08-25T04:46:59.611Z,50.08
2022-08-25T04:52:21.330Z,50.28
2022-08-25T04:57:43.531Z,49.94
2022-08-25T05:03:06.154Z,50.11
2022-08-25T05:08:27.944Z,50.17
2022-08-25T05:13:51.883Z,50.09
2022-08-25T05:19:13.677Z,49.95
2022-08-25T05:24:35.487Z,50.11
2022-08-25T05:29:57.185Z,50.00
2022-08-25T05:35:20.366Z,49.99
2022-08-25T05:40:42.061Z,50.03
2022-08-25T05:46:04.102Z,49.95
2022-08-25T05:51:26.862Z,49.89
2022-08-25T05:56:48.669Z,49.90
2022-08-25T06:02:29.055Z,50.02
2022-08-25T06:07:52.390Z,49.95
2022-08-25T06:13:14.542Z,50.06
2022-08-25T06:18:36.251Z,46.60
2022-08-25T06:23:58.072Z,45.31
2022-08-25T06:29:21.052Z,44.63
2022-08-25T06:34:42.747Z,43.14
2022-08-25T06:40:07.441Z,42.34
2022-08-25T06:45:29.154Z,43.40
2022-08-25T06:50:50.975Z,43.65
2022-08-25T06:56:13.535Z,43.67
2022-08-25T07:01:35.611Z,43.21
2022-08-25T07:06:57.406Z,44.02
2022-08-25T07:12:19.210Z,44.07
2022-08-25T07:17:40.942Z,44.56
2022-08-25T07:23:05.875Z,44.56
2022-08-25T07:28:27.681Z,44.51
2022-08-25T07:34:07.812Z,44.72
2022-08-25T07:39:32.423Z,44.87
2022-08-25T07:44:54.137Z,44.81
2022-08-25T07:50:15.946Z,45.05
2022-08-25T07:55:38.441Z,45.25
2022-08-25T08:01:00.152Z,45.06
2022-08-25T08:06:24.148Z,44.56
2022-08-25T08:11:53.833Z,44.39
2022-08-25T08:17:16.396Z,44.07
2022-08-25T08:22:41.117Z,44.32
2022-08-25T08:28:03.180Z,44.18
2022-08-25T08:33:25.989Z,44.29
2022-08-25T08:38:49.604Z,44.29
2022-08-25T08:44:42.537Z,44.68
2022-08-25T08:50:33.774Z,44.63
2022-08-25T08:56:19.630Z,44.53
2022-08-25T09:01:57.622Z,44.67
2022-08-25T09:07:24.751Z,45.08
2022-08-25T09:12:57.021Z,45.41
2022-08-25T09:18:29.535Z,45.61
2022-08-25T09:24:36.517Z,45.44
2022-08-25T09:30:14.149Z,45.27
2022-08-25T09:35:40.855Z,45.34
2022-08-25T09:41:03.180Z,45.55
2022-08-25T09:46:28.850Z,45.50
2022-08-25T09:51:52.671Z,45.26
2022-08-25T09:57:34.771Z,45.29
2022-08-25T10:03:06.016Z,45.54
2022-08-25T10:08:45.146Z,45.66
2022-08-25T10:14:18.798Z,45.85
2022-08-25T10:19:40.558Z,45.74
2022-08-25T10:25:04.921Z,45.92
2022-08-25T10:30:42.964Z,45.88
2022-08-25T10:36:21.356Z,45.75
2022-08-25T10:41:57.977Z,45.76
2022-08-25T10:47:57.759Z,45.47
2022-08-25T10:53:37.145Z,45.49
2022-08-25T10:59:19.921Z,45.22
2022-08-25T11:04:58.905Z,45.21
2022-08-25T11:10:28.027Z,45.01
2022-08-25T11:16:16.597Z,45.49
2022-08-25T11:21:47.815Z,45.09
2022-08-25T11:27:17.516Z,44.83
2022-08-25T11:32:41.961Z,44.90
2022-08-25T11:38:25.188Z,44.65
2022-08-25T11:44:23.818Z,44.91
2022-08-25T11:50:08.604Z,44.70
2022-08-25T11:55:51.410Z,44.53
2022-08-25T12:01:40.882Z,44.45
2022-08-25T12:07:11.412Z,44.51
2022-08-25T12:12:41.941Z,43.84
2022-08-25T12:18:18.757Z,43.54
2022-08-25T12:24:11.082Z,43.66
2022-08-25T12:29:57.495Z,43.66
2022-08-25T12:35:19.657Z,43.37
2022-08-25T12:40:45.333Z,43.31
2022-08-25T12:46:25.948Z,43.44
2022-08-25T12:51:53.948Z,43.26
2022-08-25T12:57:29.529Z,43.10
2022-08-25T13:03:14.168Z,43.19
2022-08-25T13:09:13.360Z,42.97
2022-08-25T13:14:40.632Z,43.14
2022-08-25T13:20:26.398Z,43.29
2022-08-25T13:25:52.050Z,43.36
2022-08-25T13:31:22.329Z,43.20
2022-08-25T13:37:04.892Z,43.53
2022-08-25T13:42:28.992Z,43.14
2022-08-25T13:47:55.848Z,43.45
2022-08-25T13:53:26.145Z,43.34
2022-08-25T13:58:47.885Z,43.25
2022-08-25T14:04:32.928Z,43.30
2022-08-25T14:10:01.631Z,43.16
2022-08-25T14:15:23.529Z,43.41
2022-08-25T14:20:54.288Z,43.71
2022-08-25T14:26:16.092Z,43.72
2022-08-25T14:31:43.452Z,43.88
2022-08-25T14:37:18.015Z,44.56
2022-08-25T14:42:40.242Z,44.82
2022-08-25T14:48:10.625Z,45.10
2022-08-25T14:53:33.662Z,44.54
2022-08-25T14:58:55.783Z,44.59
2022-08-25T15:04:20.594Z,44.28
2022-08-25T15:09:42.338Z,44.59
2022-08-25T15:15:04.531Z,43.81
2022-08-25T15:20:26.702Z,44.20
2022-08-25T15:25:52.642Z,43.79
2022-08-25T15:31:15.781Z,44.18
2022-08-25T15:36:38.027Z,44.04
2022-08-25T15:42:00.308Z,43.91
2022-08-25T15:47:24.306Z,43.86
2022-08-25T15:52:47.548Z,43.44
2022-08-25T15:58:10.292Z,43.18
2022-08-25T16:03:32.622Z,43.19
2022-08-25T16:08:54.576Z,42.58
2022-08-25T16:14:16.373Z,43.20
2022-08-25T16:19:38.382Z,43.38
2022-08-25T16:25:02.670Z,43.47
2022-08-25T16:30:24.507Z,43.78
2022-08-25T16:35:47.580Z,44.06
2022-08-25T16:41:21.453Z,44.23
2022-08-25T16:46:44.321Z,44.42
2022-08-25T16:52:28.384Z,44.37
2022-08-25T16:57:55.572Z,44.87
2022-08-25T17:03:17.357Z,44.82
2022-08-25T17:08:39.945Z,45.16
2022-08-25T17:14:06.809Z,45.20
2022-08-25T17:19:33.386Z,45.45
2022-08-25T17:25:00.742Z,45.26
2022-08-25T17:30:23.084Z,45.44
2022-08-25T17:35:49.829Z,45.44
2022-08-25T17:41:12.439Z,45.62
2022-08-25T17:46:34.315Z,45.73
2022-08-25T17:51:56.102Z,46.25
2022-08-25T17:57:17.886Z,45.89
2022-08-25T18:02:39.642Z,46.12
2022-08-25T18:08:01.738Z,46.34
2022-08-25T18:13:26.886Z,46.43
2022-08-25T18:18:51.382Z,46.18
2022-08-25T18:24:14.522Z,46.26
2022-08-25T18:29:36.456Z,46.12
2022-08-25T18:34:58.950Z,46.40
2022-08-25T18:40:24.009Z,46.10
2022-08-25T18:45:50.441Z,46.09
2022-08-25T18:51:12.270Z,45.90
2022-08-25T18:56:35.253Z,46.26
2022-08-25T19:01:57.637Z,45.89
2022-08-25T19:07:19.765Z,45.90
2022-08-25T19:12:41.628Z,46.07
2022-08-25T19:18:10.726Z,46.38
2022-08-25T19:23:32.826Z,46.47
2022-08-25T19:28:55.434Z,46.49
2022-08-25T19:34:28.352Z,46.67
2022-08-25T19:39:54.146Z,46.43
2022-08-25T19:45:15.968Z,46.48
2022-08-25T19:50:38.529Z,46.71
2022-08-25T19:56:02.270Z,46.71
2022-08-25T20:01:25.694Z,46.87
2022-08-25T20:06:48.270Z,46.89
2022-08-25T20:12:10.903Z,47.04
2022-08-25T20:17:33.695Z,46.88
2022-08-25T20:23:16.251Z,46.86
2022-08-25T20:28:42.026Z,47.07
2022-08-25T20:34:04.508Z,47.01
2022-08-25T20:39:26.298Z,46.97
2022-08-25T20:44:48.020Z,46.87
2022-08-25T20:50:10.420Z,47.02
2022-08-25T20:55:32.342Z,47.04
2022-08-25T21:01:03.683Z,46.83
2022-08-25T21:06:25.485Z,47.00
2022-08-25T21:11:48.321Z,46.56
2022-08-25T21:17:13.352Z,46.86
2022-08-25T21:22:36.121Z,46.75
2022-08-25T21:27:59.890Z,46.70
2022-08-25T21:33:21.674Z,46.43
2022-08-25T21:38:48.122Z,46.54
2022-08-25T21:44:11.178Z,46.90
2022-08-25T21:49:37.352Z,46.60
2022-08-25T21:55:02.267Z,46.55
2022-08-25T22:00:24.871Z,46.65
2022-08-25T22:05:46.559Z,46.81
2022-08-25T22:11:10.989Z,46.53
2022-08-25T22:16:35.098Z,46.66
2022-08-25T22:21:57.776Z,46.41
2022-08-25T22:27:23.472Z,46.58
2022-08-25T22:32:45.671Z,46.54
2022-08-25T22:38:08.381Z,46.44
2022-08-25T22:43:34.586Z,46.50
2022-08-25T22:48:57.010Z,46.47
2022-08-25T22:54:18.725Z,46.44
2022-08-25T22:59:40.731Z,46.50
2022-08-25T23:05:02.862Z,46.48
2022-08-25T23:10:25.696Z,46.13
2022-08-25T23:15:47.502Z,46.40
2022-08-25T23:21:28.024Z,46.53
2022-08-25T23:26:49.809Z,46.31
2022-08-25T23:32:14.496Z,46.19
2022-08-25T23:37:36.978Z,46.47
2022-08-25T23:42:58.663Z,46.43
2022-08-25T23:48:21.408Z,46.13
2022-08-25T23:53:43.171Z,46.23
2022-08-25T23:59:06.229Z,46.37
